sensor_id;sensor_type;location;lat;lon;timestamp;P1;durP1;ratioP1;P2;durP2;ratioP2
28519;SDS011;15732;48.534;20.382;2023-04-27T20:23:32;7.35;;;2.47;;
28519;SDS011;15732;48.534;20.382;2023-04-27T20:26:00;7.40;;;2.75;;
28519;SDS011;15732;48.534;20.382;2023-04-27T20:28:27;6.55;;;3.40;;
28519;SDS011;15732;48.534;20.382;2023-04-27T20:30:55;7.55;;;3.25;;
28519;SDS011;15732;48.534;20.382;2023-04-27T20:33:26;10.68;;;4.10;;
28519;SDS011;15732;48.534;20.382;2023-04-27T20:35:53;10.52;;;5.50;;
28519;SDS011;15732;48.534;20.382;2023-04-27T20:38:21;14.35;;;6.75;;
28519;SDS011;15732;48.534;20.382;2023-04-27T20:40:50;13.38;;;5.55;;
28519;SDS011;15732;48.534;20.382;2023-04-27T20:43:25;16.50;;;7.10;;
28519;SDS011;15732;48.534;20.382;2023-04-27T20:45:53;15.43;;;6.38;;
28519;SDS011;15732;48.534;20.382;2023-04-27T20:48:20;14.63;;;7.57;;
28519;SDS011;15732;48.534;20.382;2023-04-27T20:50:48;18.02;;;8.45;;
28519;SDS011;15732;48.534;20.382;2023-04-27T20:53:15;18.67;;;8.13;;
28519;SDS011;15732;48.534;20.382;2023-04-27T20:55:43;19.13;;;9.55;;
28519;SDS011;15732;48.534;20.382;2023-04-27T20:58:11;18.20;;;9.50;;
28519;SDS011;15732;48.534;20.382;2023-04-27T21:00:38;19.17;;;8.73;;
28519;SDS011;15732;48.534;20.382;2023-04-27T21:03:05;14.05;;;6.43;;
28519;SDS011;15732;48.534;20.382;2023-04-27T21:05:32;13.23;;;5.30;;
28519;SDS011;15732;48.534;20.382;2023-04-27T21:08:00;21.73;;;9.20;;
28519;SDS011;15732;48.534;20.382;2023-04-27T21:10:28;22.10;;;10.48;;
28519;SDS011;15732;48.534;20.382;2023-04-27T21:12:55;29.92;;;13.35;;
28519;SDS011;15732;48.534;20.382;2023-04-27T21:15:22;25.20;;;12.55;;
28519;SDS011;15732;48.534;20.382;2023-04-27T21:17:50;35.35;;;18.77;;
28519;SDS011;15732;48.534;20.382;2023-04-27T21:20:18;42.58;;;21.25;;
28519;SDS011;15732;48.534;20.382;2023-04-27T21:22:45;34.53;;;17.90;;
28519;SDS011;15732;48.534;20.382;2023-04-27T21:25:13;18.38;;;9.32;;
28519;SDS011;15732;48.534;20.382;2023-04-27T21:27:41;14.67;;;7.30;;
28519;SDS011;15732;48.534;20.382;2023-04-27T21:30:08;16.25;;;7.63;;
28519;SDS011;15732;48.534;20.382;2023-04-27T21:32:37;17.20;;;7.38;;
28519;SDS011;15732;48.534;20.382;2023-04-27T21:35:05;8.57;;;4.30;;
28519;SDS011;15732;48.534;20.382;2023-04-27T21:37:34;9.85;;;4.47;;
28519;SDS011;15732;48.534;20.382;2023-04-27T21:40:02;11.45;;;5.50;;
28519;SDS011;15732;48.534;20.382;2023-04-27T21:42:31;10.02;;;4.65;;
28519;SDS011;15732;48.534;20.382;2023-04-27T21:44:58;12.95;;;6.22;;
28519;SDS011;15732;48.534;20.382;2023-04-27T21:47:31;12.73;;;6.70;;
28519;SDS011;15732;48.534;20.382;2023-04-27T21:50:03;15.05;;;6.43;;
28519;SDS011;15732;48.534;20.382;2023-04-27T21:52:34;14.70;;;6.68;;
28519;SDS011;15732;48.534;20.382;2023-04-27T21:55:01;16.02;;;6.07;;
28519;SDS011;15732;48.534;20.382;2023-04-27T21:59:57;16.38;;;7.93;;
28519;SDS011;15732;48.534;20.382;2023-04-27T22:02:24;18.00;;;8.75;;
28519;SDS011;15732;48.534;20.382;2023-04-27T22:04:54;17.08;;;8.43;;
28519;SDS011;15732;48.534;20.382;2023-04-27T22:07:22;16.63;;;7.68;;
28519;SDS011;15732;48.534;20.382;2023-04-27T22:09:51;14.65;;;7.32;;
28519;SDS011;15732;48.534;20.382;2023-04-27T22:12:22;20.48;;;9.43;;
28519;SDS011;15732;48.534;20.382;2023-04-27T22:14:50;16.10;;;9.32;;
28519;SDS011;15732;48.534;20.382;2023-04-27T22:17:17;27.55;;;12.25;;
28519;SDS011;15732;48.534;20.382;2023-04-27T22:19:44;34.28;;;16.55;;
28519;SDS011;15732;48.534;20.382;2023-04-27T22:22:12;35.50;;;16.15;;
28519;SDS011;15732;48.534;20.382;2023-04-27T22:24:39;32.97;;;16.17;;
28519;SDS011;15732;48.534;20.382;2023-04-27T22:27:10;27.52;;;13.88;;
28519;SDS011;15732;48.534;20.382;2023-04-27T22:29:38;23.67;;;11.82;;
28519;SDS011;15732;48.534;20.382;2023-04-27T22:32:04;24.52;;;12.55;;
28519;SDS011;15732;48.534;20.382;2023-04-27T22:34:32;23.85;;;12.73;;
28519;SDS011;15732;48.534;20.382;2023-04-27T22:36:59;18.60;;;10.25;;
28519;SDS011;15732;48.534;20.382;2023-04-27T22:39:27;21.00;;;11.13;;
28519;SDS011;15732;48.534;20.382;2023-04-27T22:41:56;22.25;;;11.23;;
28519;SDS011;15732;48.534;20.382;2023-04-27T22:44:23;19.17;;;9.07;;
28519;SDS011;15732;48.534;20.382;2023-04-27T22:46:51;19.58;;;10.48;;
28519;SDS011;15732;48.534;20.382;2023-04-27T22:49:20;23.20;;;12.35;;
28519;SDS011;15732;48.534;20.382;2023-04-27T22:51:47;55.15;;;21.48;;
28519;SDS011;15732;48.534;20.382;2023-04-27T22:54:15;48.25;;;19.27;;
28519;SDS011;15732;48.534;20.382;2023-04-27T22:56:42;58.17;;;22.23;;
28519;SDS011;15732;48.534;20.382;2023-04-27T22:59:09;50.70;;;19.88;;
28519;SDS011;15732;48.534;20.382;2023-04-27T23:01:37;38.75;;;15.60;;
28519;SDS011;15732;48.534;20.382;2023-04-27T23:04:04;16.92;;;8.82;;
28519;SDS011;15732;48.534;20.382;2023-04-27T23:06:36;14.98;;;7.93;;
28519;SDS011;15732;48.534;20.382;2023-04-27T23:09:03;19.25;;;10.02;;
28519;SDS011;15732;48.534;20.382;2023-04-27T23:11:31;23.13;;;10.75;;
28519;SDS011;15732;48.534;20.382;2023-04-27T23:14:02;13.80;;;8.07;;
28519;SDS011;15732;48.534;20.382;2023-04-27T23:16:29;19.30;;;9.73;;
28519;SDS011;15732;48.534;20.382;2023-04-27T23:18:57;18.27;;;9.35;;
28519;SDS011;15732;48.534;20.382;2023-04-27T23:21:24;16.33;;;9.27;;
28519;SDS011;15732;48.534;20.382;2023-04-27T23:26:19;20.17;;;9.45;;
28519;SDS011;15732;48.534;20.382;2023-04-27T23:28:46;19.05;;;8.68;;
28519;SDS011;15732;48.534;20.382;2023-04-27T23:31:14;18.80;;;9.75;;
28519;SDS011;15732;48.534;20.382;2023-04-27T23:33:42;15.65;;;8.93;;
28519;SDS011;15732;48.534;20.382;2023-04-27T23:36:09;19.75;;;10.35;;
28519;SDS011;15732;48.534;20.382;2023-04-27T23:38:36;19.73;;;10.75;;
28519;SDS011;15732;48.534;20.382;2023-04-27T23:41:03;22.65;;;10.55;;
28519;SDS011;15732;48.534;20.382;2023-04-27T23:43:30;19.55;;;9.57;;
28519;SDS011;15732;48.534;20.382;2023-04-27T23:45:58;18.85;;;9.95;;
28519;SDS011;15732;48.534;20.382;2023-04-27T23:48:25;19.17;;;10.23;;
28519;SDS011;15732;48.534;20.382;2023-04-27T23:50:59;29.50;;;13.55;;
28519;SDS011;15732;48.534;20.382;2023-04-27T23:53:31;22.35;;;11.00;;
28519;SDS011;15732;48.534;20.382;2023-04-27T23:55:58;25.27;;;13.27;;
28519;SDS011;15732;48.534;20.382;2023-04-27T23:58:25;30.10;;;13.57;;
